createdAt,value
2022-08-23T00:01:31.379Z,62.30
2022-08-23T00:04:39.913Z,62.60
2022-08-23T00:08:03.490Z,62.70
2022-08-23T00:11:24.528Z,62.40
2022-08-23T00:14:34.358Z,62.30
2022-08-23T00:17:39.508Z,62.90
2022-08-23T00:20:42.671Z,62.50
2022-08-23T00:23:46.048Z,62.70
2022-08-23T00:27:04.492Z,63.00
2022-08-23T00:30:13.352Z,63.70
2022-08-23T00:33:16.641Z,63.50
2022-08-23T00:36:20.027Z,63.50
2022-08-23T00:39:23.834Z,64.50
2022-08-23T00:42:52.687Z,62.80
2022-08-23T00:46:26.463Z,63.40
2022-08-23T00:49:32.107Z,63.60
2022-08-23T00:52:45.923Z,63.10
2022-08-23T00:55:55.540Z,63.40
2022-08-23T00:58:59.398Z,63.50
2022-08-23T01:02:05.594Z,61.70
2022-08-23T01:05:10.120Z,63.50
2022-08-23T01:08:13.696Z,63.60
2022-08-23T01:11:26.617Z,62.60
2022-08-23T01:14:39.056Z,64.00
2022-08-23T01:17:50.955Z,63.70
2022-08-23T01:21:14.305Z,63.80
2022-08-23T01:25:07.886Z,62.20
2022-08-23T01:27:45.762Z,63.60
2022-08-23T01:30:50.239Z,63.40
2022-08-23T01:34:01.359Z,63.60
2022-08-23T01:37:08.162Z,64.20
2022-08-23T01:40:14.397Z,63.80
2022-08-23T01:43:19.853Z,63.90
2022-08-23T01:46:26.113Z,63.70
2022-08-23T01:49:29.397Z,64.20
2022-08-23T01:52:32.631Z,63.60
2022-08-23T01:55:38.485Z,62.70
2022-08-23T01:58:42.019Z,63.90
2022-08-23T02:01:45.305Z,64.90
2022-08-23T02:04:48.784Z,64.50
2022-08-23T02:07:52.079Z,63.60
2022-08-23T02:10:56.820Z,63.60
2022-08-23T02:14:08.843Z,64.10
2022-08-23T02:17:12.090Z,64.10
2022-08-23T02:20:15.545Z,64.00
2022-08-23T02:23:20.732Z,64.40
2022-08-23T02:26:31.314Z,64.00
2022-08-23T02:29:39.505Z,64.00
2022-08-23T02:32:43.008Z,63.90
2022-08-23T02:35:46.880Z,63.90
2022-08-23T02:38:51.443Z,64.30
2022-08-23T02:41:56.294Z,63.60
2022-08-23T02:44:59.497Z,64.20
2022-08-23T02:48:03.075Z,64.60
2022-08-23T02:51:09.562Z,64.50
2022-08-23T02:54:13.400Z,64.80
2022-08-23T02:57:18.038Z,64.70
2022-08-23T03:00:23.209Z,64.90
2022-08-23T03:03:26.851Z,65.10
2022-08-23T03:06:30.266Z,63.70
2022-08-23T03:09:34.013Z,65.00
2022-08-23T03:12:39.286Z,65.10
2022-08-23T03:15:42.928Z,65.50
2022-08-23T03:18:47.325Z,65.60
2022-08-23T03:21:50.566Z,63.20
2022-08-23T03:24:53.774Z,65.80
2022-08-23T03:27:58.486Z,65.90
2022-08-23T03:31:02.129Z,66.30
2022-08-23T03:34:06.297Z,66.30
2022-08-23T03:37:09.492Z,66.40
2022-08-23T03:40:13.824Z,66.80
2022-08-23T03:43:18.613Z,66.50
2022-08-23T03:46:24.019Z,66.70
2022-08-23T03:49:27.829Z,66.60
2022-08-23T03:52:31.137Z,66.80
2022-08-23T03:55:34.571Z,67.00
2022-08-23T03:58:46.902Z,66.90
2022-08-23T04:01:50.245Z,67.10
2022-08-23T04:04:53.674Z,67.20
2022-08-23T04:07:57.059Z,67.00
2022-08-23T04:11:00.263Z,67.00
2022-08-23T04:14:05.227Z,67.10
2022-08-23T04:17:08.565Z,68.20
2022-08-23T04:20:12.126Z,67.30
2022-08-23T04:23:15.431Z,67.40
2022-08-23T04:26:18.763Z,68.50
2022-08-23T04:29:33.961Z,66.90
2022-08-23T04:32:37.856Z,67.60
2022-08-23T04:35:42.348Z,68.70
2022-08-23T04:38:45.503Z,67.60
2022-08-23T04:42:06.726Z,67.50
2022-08-23T04:45:13.304Z,67.50
2022-08-23T04:48:16.713Z,68.10
2022-08-23T04:51:20.012Z,68.10
2022-08-23T04:54:23.970Z,69.20
2022-08-23T04:57:27.288Z,68.40
2022-08-23T05:00:32.606Z,68.40
2022-08-23T05:03:37.094Z,68.40
2022-08-23T05:06:40.451Z,68.50
2022-08-23T05:09:43.777Z,67.30
2022-08-23T05:12:48.597Z,68.50
2022-08-23T05:15:54.146Z,68.50
2022-08-23T05:18:57.641Z,69.60
2022-08-23T05:22:00.808Z,68.70
2022-08-23T05:25:05.069Z,68.70
2022-08-23T05:28:08.276Z,68.80
2022-08-23T05:31:16.125Z,69.10
2022-08-23T05:34:22.677Z,69.20
2022-08-23T05:37:26.236Z,69.30
2022-08-23T05:40:29.786Z,68.50
2022-08-23T05:43:37.153Z,69.40
2022-08-23T05:46:43.596Z,69.50
2022-08-23T05:49:46.780Z,69.40
2022-08-23T05:52:51.190Z,69.30
2022-08-23T05:55:54.638Z,69.70
2022-08-23T05:59:01.724Z,70.00
2022-08-23T06:02:06.460Z,69.00
2022-08-23T06:05:10.847Z,69.20
2022-08-23T06:08:14.019Z,67.90
2022-08-23T06:11:21.095Z,67.40
2022-08-23T06:14:24.592Z,64.90
2022-08-23T06:17:29.784Z,65.00
2022-08-23T06:20:32.935Z,63.50
2022-08-23T06:23:37.895Z,62.50
2022-08-23T06:26:45.192Z,61.30
2022-08-23T06:29:49.408Z,59.70
2022-08-23T06:32:54.484Z,58.60
2022-08-23T06:36:06.516Z,56.90
2022-08-23T06:39:13.269Z,54.70
2022-08-23T06:42:37.882Z,55.20
2022-08-23T06:45:41.025Z,54.30
2022-08-23T06:48:54.229Z,53.90
2022-08-23T06:52:01.654Z,52.10
2022-08-23T06:55:06.564Z,51.10
2022-08-23T06:58:13.214Z,50.50
2022-08-23T07:01:44.522Z,50.10
2022-08-23T07:04:53.972Z,49.10
2022-08-23T07:07:57.714Z,49.80
2022-08-23T07:11:01.347Z,49.20
2022-08-23T07:14:08.275Z,51.20
2022-08-23T07:17:12.402Z,50.50
2022-08-23T07:20:17.121Z,51.00
2022-08-23T07:23:20.302Z,50.50
2022-08-23T07:26:25.723Z,49.20
2022-08-23T07:29:30.957Z,49.50
2022-08-23T07:32:34.442Z,49.50
2022-08-23T07:35:40.392Z,48.90
2022-08-23T07:38:44.030Z,48.50
2022-08-23T07:41:47.851Z,48.30
2022-08-23T07:44:53.770Z,48.10
2022-08-23T07:47:57.406Z,48.30
2022-08-23T07:51:05.267Z,47.90
2022-08-23T07:54:12.881Z,47.60
2022-08-23T07:57:16.171Z,47.20
2022-08-23T08:00:19.633Z,47.50
2022-08-23T08:03:22.789Z,47.10
2022-08-23T08:06:31.120Z,46.70
2022-08-23T08:09:34.325Z,46.20
2022-08-23T08:12:37.786Z,46.60
2022-08-23T08:15:43.517Z,45.80
2022-08-23T08:18:47.102Z,46.10
2022-08-23T08:21:51.930Z,46.20
2022-08-23T08:24:55.088Z,46.60
2022-08-23T08:27:59.820Z,46.50
2022-08-23T08:31:04.119Z,45.80
2022-08-23T08:34:07.728Z,45.80
2022-08-23T08:37:12.449Z,45.20
2022-08-23T08:40:21.794Z,45.20
2022-08-23T08:43:52.352Z,45.50
2022-08-23T08:46:58.158Z,44.20
2022-08-23T08:50:16.374Z,44.70
2022-08-23T08:53:29.934Z,44.00
2022-08-23T08:56:39.447Z,44.20
2022-08-23T08:59:56.232Z,44.70
2022-08-23T09:03:02.706Z,45.00
2022-08-23T09:06:16.720Z,45.30
2022-08-23T09:09:55.187Z,45.20
2022-08-23T09:13:20.723Z,45.80
2022-08-23T09:16:41.071Z,46.40
2022-08-23T09:19:47.952Z,46.20
2022-08-23T09:23:01.802Z,46.20
2022-08-23T09:26:22.032Z,45.90
2022-08-23T09:29:28.877Z,46.70
2022-08-23T09:32:37.515Z,45.50
2022-08-23T09:35:41.314Z,45.50
2022-08-23T09:38:54.891Z,45.50
2022-08-23T09:42:00.694Z,44.90
2022-08-23T09:45:06.786Z,45.00
2022-08-23T09:48:16.747Z,46.10
2022-08-23T09:51:27.158Z,43.20
2022-08-23T09:54:34.666Z,44.60
2022-08-23T09:57:39.540Z,44.10
2022-08-23T10:00:43.999Z,45.20
2022-08-23T10:03:47.554Z,44.80
2022-08-23T10:06:51.275Z,44.60
2022-08-23T10:09:55.265Z,45.40
2022-08-23T10:13:00.460Z,43.60
2022-08-23T10:16:12.962Z,44.20
2022-08-23T10:19:32.496Z,44.20
2022-08-23T10:22:46.630Z,44.30
2022-08-23T10:25:56.483Z,44.50
2022-08-23T10:29:36.043Z,44.00
2022-08-23T10:33:07.343Z,43.80
2022-08-23T10:36:23.241Z,43.40
2022-08-23T10:39:30.346Z,42.70
2022-08-23T10:42:51.599Z,42.70
2022-08-23T10:46:02.521Z,43.00
2022-08-23T10:49:07.921Z,42.90
2022-08-23T10:52:23.874Z,42.20
2022-08-23T10:55:54.571Z,42.10
2022-08-23T10:59:02.917Z,42.60
2022-08-23T11:02:29.983Z,42.50
2022-08-23T11:05:38.743Z,43.20
2022-08-23T11:08:47.891Z,42.70
2022-08-23T11:12:14.428Z,42.80
2022-08-23T11:15:32.990Z,42.70
2022-08-23T11:18:43.838Z,42.20
2022-08-23T11:21:50.208Z,42.90
2022-08-23T11:25:02.707Z,42.60
2022-08-23T11:28:44.034Z,42.80
2022-08-23T11:31:50.855Z,42.60
2022-08-23T11:35:08.715Z,42.40
2022-08-23T11:38:13.750Z,42.20
2022-08-23T11:41:27.288Z,42.80
2022-08-23T11:44:40.892Z,42.10
2022-08-23T11:47:45.683Z,41.50
2022-08-23T11:51:12.853Z,41.10
2022-08-23T11:54:40.151Z,42.70
2022-08-23T11:58:13.886Z,40.80
2022-08-23T12:01:18.087Z,39.80
2022-08-23T12:04:39.410Z,41.80
2022-08-23T12:07:54.193Z,39.90
2022-08-23T12:11:10.103Z,40.80
2022-08-23T12:14:49.634Z,40.80
2022-08-23T12:18:15.179Z,40.00
2022-08-23T12:21:25.101Z,40.20
2022-08-23T12:24:35.554Z,39.30
2022-08-23T12:27:50.088Z,39.80
2022-08-23T12:31:07.825Z,39.90
2022-08-23T12:34:23.442Z,40.70
2022-08-23T12:37:38.293Z,38.70
2022-08-23T12:40:48.030Z,39.00
2022-08-23T12:44:06.806Z,38.50
2022-08-23T12:47:17.948Z,38.50
2022-08-23T12:50:33.045Z,38.00
2022-08-23T12:53:44.824Z,37.80
2022-08-23T12:56:54.965Z,38.30
2022-08-23T13:00:19.976Z,39.60
2022-08-23T13:03:30.976Z,39.20
2022-08-23T13:06:43.501Z,38.50
2022-08-23T13:09:53.660Z,37.40
2022-08-23T13:13:00.771Z,37.90
2022-08-23T13:16:27.428Z,38.80
2022-08-23T13:19:33.626Z,36.70
2022-08-23T13:22:39.667Z,37.60
2022-08-23T13:25:44.390Z,37.60
2022-08-23T13:29:07.046Z,36.60
2022-08-23T13:32:28.402Z,35.70
2022-08-23T13:35:38.792Z,36.50
2022-08-23T13:38:45.665Z,36.90
2022-08-23T13:41:48.899Z,37.30
2022-08-23T13:44:54.826Z,37.40
2022-08-23T13:48:02.872Z,37.60
2022-08-23T13:51:26.162Z,38.50
2022-08-23T13:54:33.610Z,38.60
2022-08-23T13:57:41.063Z,37.20
2022-08-23T14:00:55.366Z,37.00
2022-08-23T14:03:59.333Z,37.30
2022-08-23T14:07:02.587Z,37.30
2022-08-23T14:10:06.988Z,37.50
2022-08-23T14:13:12.053Z,38.70
2022-08-23T14:16:40.663Z,38.70
2022-08-23T14:23:11.780Z,38.10
2022-08-23T14:26:20.230Z,37.90
2022-08-23T14:29:28.023Z,37.80
2022-08-23T14:32:33.004Z,38.90
2022-08-23T14:35:37.516Z,38.80
2022-08-23T14:38:41.095Z,39.60
2022-08-23T14:41:45.630Z,40.30
2022-08-23T14:44:51.554Z,40.20
2022-08-23T14:47:56.309Z,40.60
2022-08-23T14:51:00.131Z,41.60
2022-08-23T14:54:06.627Z,42.60
2022-08-23T14:57:09.958Z,41.60
2022-08-23T15:00:14.921Z,42.60
2022-08-23T15:03:27.654Z,43.20
2022-08-23T15:06:31.103Z,43.40
2022-08-23T15:09:34.873Z,43.40
2022-08-23T15:16:02.328Z,43.80
2022-08-23T15:19:07.570Z,43.90
2022-08-23T15:22:18.384Z,44.40
2022-08-23T15:25:26.630Z,44.50
2022-08-23T15:28:31.463Z,45.10
2022-08-23T15:31:34.869Z,45.30
2022-08-23T15:34:44.967Z,43.80
2022-08-23T15:37:49.831Z,44.90
2022-08-23T15:40:55.807Z,43.70
2022-08-23T15:43:59.212Z,44.30
2022-08-23T15:47:19.145Z,44.00
2022-08-23T15:50:27.191Z,43.40
2022-08-23T15:53:30.563Z,43.70
2022-08-23T15:56:38.298Z,43.50
2022-08-23T15:59:41.775Z,43.60
2022-08-23T16:03:19.582Z,43.30
2022-08-23T16:06:13.729Z,43.20
2022-08-23T16:09:23.476Z,43.00
2022-08-23T16:12:27.432Z,43.80
2022-08-23T16:15:30.613Z,44.70
2022-08-23T16:18:33.823Z,45.40
2022-08-23T16:21:38.552Z,45.10
2022-08-23T16:24:42.175Z,45.30
2022-08-23T16:27:45.479Z,45.80
2022-08-23T16:30:48.776Z,45.40
2022-08-23T16:33:52.056Z,45.70
2022-08-23T16:37:01.469Z,45.80
2022-08-23T16:40:06.842Z,45.40
2022-08-23T16:43:10.140Z,46.70
2022-08-23T16:46:15.907Z,47.00
2022-08-23T16:49:20.009Z,47.80
2022-08-23T16:52:24.847Z,48.20
2022-08-23T16:55:39.544Z,48.70
2022-08-23T16:58:43.630Z,48.60
2022-08-23T17:01:52.084Z,48.80
2022-08-23T17:04:55.430Z,49.50
2022-08-23T17:08:00.789Z,49.30
2022-08-23T17:11:05.198Z,49.90
2022-08-23T17:14:08.630Z,49.90
2022-08-23T17:17:12.037Z,50.10
2022-08-23T17:20:17.073Z,50.20
2022-08-23T17:23:22.173Z,50.60
2022-08-23T17:26:25.500Z,50.70
2022-08-23T17:29:28.973Z,50.80
2022-08-23T17:32:38.839Z,50.60
2022-08-23T17:35:42.159Z,50.90
2022-08-23T17:38:46.875Z,50.50
2022-08-23T17:41:50.793Z,50.50
2022-08-23T17:44:54.384Z,50.10
2022-08-23T17:47:57.659Z,50.80
2022-08-23T17:51:01.514Z,50.10
2022-08-23T17:54:06.797Z,50.70
2022-08-23T17:57:11.898Z,51.20
2022-08-23T18:00:18.349Z,51.40
2022-08-23T18:03:21.913Z,51.10
2022-08-23T18:06:26.459Z,51.20
2022-08-23T18:09:31.327Z,51.20
2022-08-23T18:12:34.737Z,51.80
2022-08-23T18:15:39.702Z,51.70
2022-08-23T18:18:43.291Z,51.80
2022-08-23T18:21:46.745Z,51.50
2022-08-23T18:24:51.451Z,52.00
2022-08-23T18:28:11.194Z,51.50
2022-08-23T18:31:16.721Z,51.30
2022-08-23T18:34:20.434Z,51.10
2022-08-23T18:37:23.815Z,51.00
2022-08-23T18:40:29.973Z,50.80
2022-08-23T18:43:37.397Z,50.50
2022-08-23T18:46:44.113Z,50.90
2022-08-23T18:49:47.937Z,51.00
2022-08-23T18:52:51.126Z,51.00
2022-08-23T18:55:57.846Z,51.10
2022-08-23T18:59:01.199Z,51.30
2022-08-23T19:02:04.940Z,52.50
2022-08-23T19:05:09.450Z,51.60
2022-08-23T19:08:14.058Z,51.80
2022-08-23T19:11:19.997Z,52.40
2022-08-23T19:14:23.497Z,52.30
2022-08-23T19:17:26.964Z,52.10
2022-08-23T19:20:30.382Z,52.10
2022-08-23T19:23:34.370Z,52.60
2022-08-23T19:26:40.641Z,52.50
2022-08-23T19:29:44.516Z,52.40
2022-08-23T19:32:47.847Z,51.80
2022-08-23T19:35:51.062Z,52.20
2022-08-23T19:38:57.092Z,51.80
2022-08-23T19:42:02.592Z,52.60
2022-08-23T19:45:08.151Z,53.10
2022-08-23T19:48:11.634Z,53.20
2022-08-23T19:51:17.856Z,53.60
2022-08-23T19:54:21.967Z,53.90
2022-08-23T19:57:27.261Z,55.00
2022-08-23T20:00:31.319Z,54.70
2022-08-23T20:03:34.438Z,54.40
2022-08-23T20:06:41.584Z,54.40
2022-08-23T20:09:45.593Z,54.50
2022-08-23T20:12:50.670Z,54.70
2022-08-23T20:15:56.264Z,55.80
2022-08-23T20:19:00.403Z,56.10
2022-08-23T20:22:18.510Z,56.10
2022-08-23T20:25:22.231Z,55.70
2022-08-23T20:28:27.088Z,55.80
2022-08-23T20:31:33.708Z,55.90
2022-08-23T20:34:37.634Z,56.00
2022-08-23T20:37:41.552Z,56.10
2022-08-23T20:40:44.894Z,56.00
2022-08-23T20:43:50.469Z,57.10
2022-08-23T20:46:57.667Z,57.20
2022-08-23T20:50:04.827Z,55.70
2022-08-23T20:53:11.798Z,55.80
2022-08-23T20:56:16.044Z,55.70
2022-08-23T20:59:21.460Z,56.00
2022-08-23T21:02:24.710Z,56.20
2022-08-23T21:05:28.311Z,56.30
2022-08-23T21:08:31.880Z,56.60
2022-08-23T21:11:35.018Z,56.60
2022-08-23T21:14:39.756Z,56.90
2022-08-23T21:17:43.010Z,57.40
2022-08-23T21:20:50.195Z,57.40
2022-08-23T21:23:53.854Z,57.60
2022-08-23T21:26:57.288Z,57.90
2022-08-23T21:30:02.198Z,57.90
2022-08-23T21:33:07.756Z,58.10
2022-08-23T21:36:11.600Z,57.70
2022-08-23T21:39:14.934Z,57.70
2022-08-23T21:42:23.512Z,57.60
2022-08-23T21:45:29.170Z,57.80
2022-08-23T21:48:34.807Z,58.10
2022-08-23T21:51:38.829Z,58.10
2022-08-23T21:54:43.704Z,58.40
2022-08-23T21:57:47.046Z,58.50
2022-08-23T22:00:52.362Z,58.50
2022-08-23T22:03:57.194Z,59.20
2022-08-23T22:07:00.843Z,59.90
2022-08-23T22:10:08.125Z,59.70
2022-08-23T22:13:11.616Z,60.80
2022-08-23T22:16:16.278Z,61.20
2022-08-23T22:19:21.905Z,61.70
2022-08-23T22:22:26.012Z,61.40
2022-08-23T22:25:29.708Z,62.70
2022-08-23T22:28:34.626Z,62.90
2022-08-23T22:31:40.331Z,63.40
2022-08-23T22:34:43.628Z,64.00
2022-08-23T22:38:10.209Z,63.70
2022-08-23T22:41:12.582Z,63.80
2022-08-23T22:44:16.038Z,64.30
2022-08-23T22:47:20.755Z,64.30
2022-08-23T22:50:24.072Z,64.80
2022-08-23T22:53:27.407Z,64.60
2022-08-23T22:56:39.414Z,64.80
2022-08-23T22:59:42.736Z,65.30
2022-08-23T23:02:48.875Z,65.00
2022-08-23T23:05:53.452Z,65.40
2022-08-23T23:08:57.300Z,65.30
2022-08-23T23:12:00.742Z,65.30
2022-08-23T23:15:04.162Z,65.40
2022-08-23T23:18:08.899Z,65.30
2022-08-23T23:21:11.328Z,65.60
2022-08-23T23:24:18.111Z,65.40
2022-08-23T23:27:21.313Z,65.60
2022-08-23T23:30:24.574Z,65.40
2022-08-23T23:33:29.480Z,65.40
2022-08-23T23:36:32.798Z,65.80
2022-08-23T23:39:36.040Z,65.70
2022-08-23T23:42:39.735Z,65.30
2022-08-23T23:45:43.465Z,65.30
2022-08-23T23:48:51.263Z,65.60
2022-08-23T23:51:54.598Z,66.30
2022-08-23T23:54:58.039Z,66.10
2022-08-23T23:58:02.034Z,65.50
